Time;durP1;ratioP1;P1;durP2;ratioP2;P2;SDS_P1;SDS_P2;PMS_P1;PMS_P2;Temp;Humidity;BMP_temperature;BMP_pressure;BME280_temperature;BME280_humidity;BME280_pressure;Samples;Min_cycle;Max_cycle;Signal;HPM_P1;HPM_P2
2021/03/20 00:01:41;;;;;;;1.77;1.10;;;-0.60;99.90;;;;;;5046960;28;20614;-85
2021/03/20 00:04:07;;;;;;;2.45;1.25;;;-0.70;99.90;;;;;;5030024;28;20219;-85
2021/03/20 00:06:41;;;;;;;1.75;1.23;;;-0.80;99.90;;;;;;5050536;28;20583;-85
2021/03/20 00:09:10;;;;;;;1.48;1.10;;;-0.90;99.90;;;;;;5053344;28;20208;-84
2021/03/20 00:11:39;;;;;;;2.53;1.17;;;-1.00;99.90;;;;;;5039870;28;20612;-85
2021/03/20 00:14:05;;;;;;;2.45;1.20;;;-1.00;99.90;;;;;;5035179;28;20209;-84
2021/03/20 00:16:32;;;;;;;2.95;1.20;;;-1.00;99.90;;;;;;5036788;28;20276;-84
2021/03/20 00:18:58;;;;;;;2.38;1.17;;;-1.00;99.90;;;;;;5036884;28;20723;-85
2021/03/20 00:21:23;;;;;;;3.53;1.10;;;-0.90;99.90;;;;;;5054698;28;20550;-84
2021/03/20 00:23:49;;;;;;;1.30;1.20;;;-0.90;99.90;;;;;;5033892;28;20189;-85
2021/03/20 00:26:15;;;;;;;1.50;1.20;;;-0.90;99.90;;;;;;5054731;28;20201;-85
2021/03/20 00:28:41;;;;;;;1.05;0.98;;;-0.90;99.90;;;;;;5044354;28;20243;-85
2021/03/20 00:31:09;;;;;;;3.30;1.20;;;-0.90;99.90;;;;;;5037954;28;20228;-85
2021/03/20 00:33:35;;;;;;;3.72;1.20;;;-0.80;99.90;;;;;;5034258;28;20263;-86
2021/03/20 00:36:03;;;;;;;1.20;1.10;;;-0.80;99.90;;;;;;5038570;28;20201;-85
2021/03/20 00:38:29;;;;;;;2.60;1.30;;;-0.80;99.90;;;;;;5032250;28;20282;-84
2021/03/20 00:40:56;;;;;;;1.20;1.10;;;-0.80;99.90;;;;;;5036596;28;20544;-84
2021/03/20 00:43:23;;;;;;;1.63;1.08;;;-0.80;99.90;;;;;;5035913;28;20775;-84
2021/03/20 00:45:49;;;;;;;1.55;1.10;;;-0.70;99.90;;;;;;5033413;28;20303;-84
2021/03/20 00:48:18;;;;;;;2.55;1.08;;;-0.70;99.90;;;;;;5049573;28;20648;-84
2021/03/20 00:50:44;;;;;;;1.05;0.95;;;-0.70;99.90;;;;;;5029303;28;20208;-84
2021/03/20 00:53:10;;;;;;;1.48;1.00;;;-0.70;99.90;;;;;;5054667;28;20213;-84
2021/03/20 00:55:35;;;;;;;1.20;1.02;;;-0.70;99.90;;;;;;5053451;28;20215;-84
2021/03/20 00:58:19;;;;;;;1.38;1.05;;;-0.70;99.90;;;;;;5040370;28;20193;-84
2021/03/20 01:00:46;;;;;;;1.30;1.00;;;-0.70;99.90;;;;;;5050843;28;20693;-84
2021/03/20 01:03:11;;;;;;;2.35;1.25;;;-0.70;99.90;;;;;;5038719;28;20538;-84
2021/03/20 01:05:37;;;;;;;3.42;1.10;;;-0.70;99.90;;;;;;5037136;28;20197;-84
2021/03/20 01:08:03;;;;;;;3.42;1.10;;;-0.70;99.90;;;;;;5040564;28;20190;-85
2021/03/20 01:10:29;;;;;;;3.55;1.10;;;-0.70;99.90;;;;;;5040092;28;20201;-84
2021/03/20 01:12:54;;;;;;;2.15;1.02;;;-0.70;99.90;;;;;;5031607;28;20209;-84
2021/03/20 01:15:20;;;;;;;1.60;1.20;;;-0.70;99.90;;;;;;5034941;28;20197;-84
2021/03/20 01:17:46;;;;;;;2.72;1.20;;;-0.80;99.90;;;;;;5036998;28;20193;-84
2021/03/20 01:20:13;;;;;;;1.10;1.00;;;-0.80;99.90;;;;;;5054813;28;20194;-84
2021/03/20 01:22:39;;;;;;;1.98;1.10;;;-0.80;99.90;;;;;;5036443;28;20189;-85
2021/03/20 01:25:08;;;;;;;1.63;1.10;;;-0.80;99.90;;;;;;5052657;28;20255;-84
2021/03/20 01:27:34;;;;;;;1.73;1.17;;;-0.90;99.90;;;;;;5040516;28;20258;-84
2021/03/20 01:30:00;;;;;;;1.67;1.15;;;-0.90;99.90;;;;;;5035998;28;20348;-84
2021/03/20 01:32:26;;;;;;;2.58;0.93;;;-0.90;99.90;;;;;;5034185;28;20212;-84
2021/03/20 01:34:52;;;;;;;2.45;1.08;;;-1.00;99.90;;;;;;5034220;28;20672;-84
2021/03/20 01:37:17;;;;;;;1.15;1.05;;;-1.00;99.90;;;;;;5057382;28;20208;-84
2021/03/20 01:39:43;;;;;;;5.82;1.30;;;-0.90;99.90;;;;;;5032136;28;20198;-84
2021/03/20 01:42:09;;;;;;;1.20;1.00;;;-0.90;99.90;;;;;;5038393;28;20197;-84
2021/03/20 01:44:36;;;;;;;1.25;1.15;;;-0.90;99.90;;;;;;5025568;28;20284;-84
2021/03/20 01:47:09;;;;;;;4.53;1.10;;;-0.90;99.90;;;;;;5051984;28;20475;-83
2021/03/20 01:49:45;;;;;;;2.10;1.20;;;-0.90;99.90;;;;;;5058109;28;20282;-84
2021/03/20 01:52:29;;;;;;;3.53;1.08;;;-0.90;99.90;;;;;;5034243;28;20208;-84
2021/03/20 01:55:07;;;;;;;2.42;1.20;;;-0.90;99.90;;;;;;5047980;28;20283;-84
2021/03/20 01:57:40;;;;;;;1.83;1.10;;;-0.90;99.90;;;;;;5031134;28;20215;-84
2021/03/20 02:00:32;;;;;;;2.53;1.20;;;-0.90;99.90;;;;;;5051878;28;20297;-84
2021/03/20 02:03:01;;;;;;;2.00;1.10;;;-1.00;99.90;;;;;;5028198;28;20212;-84
2021/03/20 02:05:30;;;;;;;1.38;1.05;;;-1.10;99.90;;;;;;5036907;22;20233;-70
2021/03/20 02:07:57;;;;;;;3.72;1.27;;;-1.10;99.90;;;;;;5039303;28;20257;-70
2021/03/20 02:10:27;;;;;;;7.45;1.23;;;-1.10;99.90;;;;;;5019178;28;20201;-70
2021/03/20 02:13:03;;;;;;;2.20;1.20;;;-1.10;99.90;;;;;;5041081;28;20209;-69
2021/03/20 02:15:46;;;;;;;2.58;1.23;;;-1.20;99.90;;;;;;5039589;28;21046;-70
2021/03/20 02:18:33;;;;;;;3.80;1.33;;;-1.30;99.90;;;;;;5025118;28;20190;-70
2021/03/20 02:21:21;;;;;;;2.88;1.48;;;-1.30;99.90;;;;;;5038583;28;20279;-70
2021/03/20 02:24:11;;;;;;;3.05;1.20;;;-1.30;99.90;;;;;;5039478;28;20202;-71
2021/03/20 02:27:05;;;;;;;2.45;1.20;;;-1.40;99.90;;;;;;5041368;28;20200;-70
2021/03/20 02:29:52;;;;;;;1.50;1.27;;;-1.40;99.90;;;;;;5038880;28;20194;-70
2021/03/20 02:32:31;;;;;;;2.60;1.23;;;-1.50;99.90;;;;;;5024760;28;21001;-72
2021/03/20 02:35:11;;;;;;;2.65;1.10;;;-1.50;99.90;;;;;;5035814;28;20201;-69
2021/03/20 02:37:49;;;;;;;1.83;1.25;;;-1.60;99.90;;;;;;5037358;28;20724;-70
2021/03/20 02:40:37;;;;;;;2.28;1.20;;;-1.60;99.90;;;;;;5036047;28;20189;-70
2021/03/20 02:43:05;;;;;;;2.15;1.10;;;-1.70;99.90;;;;;;5040422;28;20274;-71
2021/03/20 02:45:46;;;;;;;4.13;1.25;;;-1.70;99.90;;;;;;5038743;28;20216;-71
2021/03/20 02:48:26;;;;;;;1.67;1.20;;;-1.70;99.90;;;;;;5035453;28;20190;-70
2021/03/20 02:51:19;;;;;;;3.28;1.30;;;-1.70;99.90;;;;;;5042206;28;20299;-70
2021/03/20 02:53:51;;;;;;;4.55;1.50;;;-1.70;99.90;;;;;;5041497;28;20209;-70
2021/03/20 02:56:25;;;;;;;2.25;1.40;;;-1.70;99.90;;;;;;5041022;28;20202;-69
2021/03/20 02:59:07;;;;;;;1.70;1.25;;;-1.60;99.90;;;;;;5042638;28;20197;-71
2021/03/20 03:01:34;;;;;;;2.78;1.10;;;-1.60;99.90;;;;;;5037135;28;20537;-70
2021/03/20 03:04:02;;;;;;;2.00;1.20;;;-1.60;99.90;;;;;;5039933;28;20228;-70
2021/03/20 03:06:45;;;;;;;2.70;1.13;;;-1.60;99.90;;;;;;5045286;28;20216;-70
2021/03/20 03:09:30;;;;;;;2.80;1.50;;;-1.60;99.90;;;;;;5026335;28;21627;-70
2021/03/20 03:12:01;;;;;;;1.83;1.27;;;-1.70;99.90;;;;;;5043867;28;20193;-70
2021/03/20 03:14:43;;;;;;;1.30;1.20;;;-1.70;99.90;;;;;;5041881;28;20236;-72
2021/03/20 03:17:10;;;;;;;1.65;1.15;;;-1.80;99.90;;;;;;5040930;28;20614;-71
2021/03/20 03:19:54;;;;;;;5.05;1.30;;;-1.80;99.90;;;;;;5040589;28;20194;-69
2021/03/20 03:22:25;;;;;;;2.50;1.23;;;-1.90;99.90;;;;;;5044380;28;20189;-70
2021/03/20 03:24:55;;;;;;;1.75;1.02;;;-1.90;99.90;;;;;;5044380;28;20215;-70
2021/03/20 03:27:23;;;;;;;1.20;1.10;;;-2.00;99.90;;;;;;5039320;28;20598;-71
2021/03/20 03:29:49;;;;;;;2.78;1.17;;;-2.00;99.90;;;;;;5042209;28;20670;-69
2021/03/20 03:32:43;;;;;;;3.08;1.30;;;-2.10;99.90;;;;;;5044199;28;20189;-70
2021/03/20 03:35:14;;;;;;;1.50;1.23;;;-2.20;99.90;;;;;;5029811;28;20221;-70
2021/03/20 03:37:53;;;;;;;3.53;1.30;;;-2.20;99.90;;;;;;5027918;28;20194;-69
2021/03/20 03:40:25;;;;;;;1.55;1.27;;;-2.30;99.90;;;;;;5043688;28;20189;-71
2021/03/20 03:42:51;;;;;;;2.72;1.33;;;-2.30;99.90;;;;;;5043445;28;20193;-69
2021/03/20 03:45:19;;;;;;;4.65;1.50;;;-2.40;99.90;;;;;;5038302;28;20209;-70
2021/03/20 03:47:47;;;;;;;1.30;1.20;;;-2.40;99.90;;;;;;5040786;28;20194;-70
2021/03/20 03:50:19;;;;;;;4.32;1.50;;;-2.40;99.90;;;;;;5041466;28;20198;-70
2021/03/20 03:52:44;;;;;;;2.08;1.33;;;-2.50;99.90;;;;;;5039122;28;20207;-69
2021/03/20 03:55:10;;;;;;;2.10;1.30;;;-2.50;99.90;;;;;;5023780;28;20202;-71
2021/03/20 03:57:49;;;;;;;5.25;1.40;;;-2.60;99.90;;;;;;5043074;28;20228;-70
2021/03/20 04:00:24;;;;;;;4.57;1.35;;;-2.60;99.90;;;;;;5043585;28;20205;-70
2021/03/20 04:03:08;;;;;;;3.15;1.35;;;-2.60;99.90;;;;;;5037695;28;20204;-71
2021/03/20 04:05:44;;;;;;;2.20;1.50;;;-2.70;99.90;;;;;;5045627;28;20253;-69
2021/03/20 04:08:17;;;;;;;7.45;1.40;;;-2.70;99.90;;;;;;5022492;28;20201;-70
2021/03/20 04:10:57;;;;;;;4.75;1.70;;;-2.80;99.90;;;;;;5043025;28;20197;-71
2021/03/20 04:13:28;;;;;;;3.40;1.10;;;-2.80;99.90;;;;;;5041171;28;20216;-72
2021/03/20 04:16:08;;;;;;;4.38;1.50;;;-2.90;99.90;;;;;;5019353;28;20194;-71
2021/03/20 04:18:49;;;;;;;4.40;1.50;;;-2.90;99.90;;;;;;5036854;28;20201;-71
2021/03/20 04:21:29;;;;;;;2.78;1.40;;;-3.00;99.90;;;;;;5039055;28;20221;-70
2021/03/20 04:24:25;;;;;;;2.08;1.40;;;-3.00;99.90;;;;;;5039217;28;20216;-71
2021/03/20 04:27:05;;;;;;;2.45;1.48;;;-3.10;99.90;;;;;;5040079;28;20193;-71
2021/03/20 04:29:46;;;;;;;2.95;1.40;;;-3.10;99.90;;;;;;5040333;28;20276;-71
2021/03/20 04:32:18;;;;;;;7.25;1.50;;;-3.10;99.90;;;;;;5023551;28;20198;-69
2021/03/20 04:34:55;;;;;;;5.65;1.40;;;-3.10;99.90;;;;;;5039066;28;20240;-70
2021/03/20 04:37:26;;;;;;;1.80;1.40;;;-3.20;99.90;;;;;;5044744;28;20276;-70
2021/03/20 04:39:55;;;;;;;2.65;1.20;;;-3.20;99.90;;;;;;5042890;28;20193;-71
2021/03/20 04:42:30;;;;;;;2.22;1.50;;;-3.20;99.90;;;;;;5023965;28;20235;-71
2021/03/20 04:45:00;;;;;;;3.53;1.65;;;-3.20;99.90;;;;;;5025697;28;20210;-71
2021/03/20 04:47:29;;;;;;;4.97;1.58;;;-3.20;99.90;;;;;;5025272;28;20198;-71
2021/03/20 04:50:04;;;;;;;5.65;1.60;;;-3.30;99.90;;;;;;5035748;28;20562;-70
2021/03/20 04:52:36;;;;;;;8.57;1.50;;;-3.30;99.90;;;;;;5039383;28;20266;-70
2021/03/20 04:55:07;;;;;;;2.15;1.50;;;-3.20;99.90;;;;;;5032671;28;20198;-70
2021/03/20 04:57:37;;;;;;;4.65;1.40;;;-3.20;99.90;;;;;;5035205;28;20198;-72
2021/03/20 05:00:09;;;;;;;2.22;1.35;;;-3.10;99.90;;;;;;5036784;28;20198;-71
2021/03/20 05:02:53;;;;;;;5.47;1.50;;;-3.20;99.90;;;;;;5032733;28;20594;-70
2021/03/20 05:05:28;;;;;;;2.58;1.50;;;-3.10;99.90;;;;;;5034784;28;20220;-72
2021/03/20 05:07:57;;;;;;;2.67;1.30;;;-3.10;99.90;;;;;;5032185;28;20197;-71
2021/03/20 05:10:59;;;;;;;4.88;1.55;;;-3.10;99.90;;;;;;5032891;28;20198;-71
2021/03/20 05:13:47;;;;;;;2.33;1.30;;;-3.10;99.90;;;;;;5034859;28;20204;-71
2021/03/20 05:16:16;;;;;;;4.07;1.38;;;-3.10;99.90;;;;;;5033350;28;20233;-70
2021/03/20 05:18:47;;;;;;;3.10;1.30;;;-3.10;99.90;;;;;;5033605;28;20536;-70
2021/03/20 05:21:36;;;;;;;1.42;1.20;;;-3.20;99.90;;;;;;5028425;28;20193;-71
2021/03/20 05:24:06;;;;;;;8.60;1.80;;;-3.10;99.90;;;;;;5029669;28;20615;-72
2021/03/20 05:26:34;;;;;;;9.48;1.88;;;-3.10;99.90;;;;;;5020443;28;20668;-73
2021/03/20 05:29:00;;;;;;;1.42;1.25;;;-3.10;99.90;;;;;;5019597;28;20197;-70
2021/03/20 05:31:28;;;;;;;7.13;1.63;;;-3.10;99.90;;;;;;5036438;28;20201;-73
2021/03/20 05:33:54;;;;;;;4.40;1.60;;;-3.10;99.90;;;;;;5020542;28;20307;-71
2021/03/20 05:36:20;;;;;;;5.35;1.27;;;-3.10;99.90;;;;;;5029653;28;20198;-72
2021/03/20 05:38:47;;;;;;;1.40;1.30;;;-3.00;99.90;;;;;;5031457;28;20191;-71
2021/03/20 05:41:50;;;;;;;9.70;1.50;;;-3.00;99.90;;;;;;5033327;28;20190;-71
2021/03/20 05:44:45;;;;;;;3.15;1.30;;;-3.00;99.90;;;;;;5032273;28;20296;-70
2021/03/20 05:47:16;;;;;;;6.45;1.50;;;-2.90;99.90;;;;;;5030355;28;20194;-71
2021/03/20 05:50:10;;;;;;;1.88;1.33;;;-2.90;99.90;;;;;;5031057;28;20243;-70
2021/03/20 05:52:57;;;;;;;5.53;1.50;;;-2.80;99.90;;;;;;5033689;28;20199;-69
2021/03/20 05:55:39;;;;;;;1.95;1.27;;;-2.80;99.90;;;;;;5029282;28;20242;-71
2021/03/20 05:58:31;;;;;;;3.78;1.67;;;-2.80;99.90;;;;;;5017463;28;20255;-70
2021/03/20 06:01:07;;;;;;;2.53;1.50;;;-2.70;99.90;;;;;;5034046;28;20229;-71
2021/03/20 06:03:55;;;;;;;4.78;1.40;;;-2.70;99.90;;;;;;5030966;28;20209;-70
2021/03/20 06:06:52;;;;;;;2.42;1.55;;;-2.60;99.90;;;;;;5033523;28;20212;-71
2021/03/20 06:09:36;;;;;;;3.35;1.35;;;-2.40;99.90;;;;;;5031065;28;20210;-71
2021/03/20 06:12:11;;;;;;;2.53;1.65;;;-2.30;99.90;;;;;;5033875;28;20236;-70
2021/03/20 06:15:07;;;;;;;2.60;1.42;;;-2.20;99.90;;;;;;5020687;28;20734;-71
2021/03/20 06:17:53;;;;;;;2.88;1.70;;;-2.10;99.90;;;;;;5028225;28;20202;-73
2021/03/20 06:20:43;;;;;;;3.15;1.50;;;-1.90;99.90;;;;;;5017796;28;20256;-70
2021/03/20 06:23:41;;;;;;;3.83;1.45;;;-1.80;99.90;;;;;;5032676;28;20259;-70
2021/03/20 06:26:28;;;;;;;2.00;1.33;;;-1.70;99.90;;;;;;5022621;28;20346;-71
2021/03/20 06:28:59;;;;;;;4.35;1.48;;;-1.50;99.90;;;;;;5020477;28;20209;-71
2021/03/20 06:31:43;;;;;;;4.15;1.50;;;-1.40;99.90;;;;;;5036797;28;20746;-72
2021/03/20 06:34:27;;;;;;;7.55;1.40;;;-1.40;99.90;;;;;;5024577;28;20692;-72
2021/03/20 06:37:11;;;;;;;4.85;1.55;;;-1.20;99.90;;;;;;5035176;28;20194;-69
2021/03/20 06:39:39;;;;;;;5.60;1.63;;;-1.20;99.90;;;;;;5035386;28;20272;-71
2021/03/20 06:42:19;;;;;;;2.92;1.50;;;-1.10;99.90;;;;;;5033952;28;20186;-71
2021/03/20 06:44:48;;;;;;;6.97;1.50;;;-0.90;99.90;;;;;;5034171;28;20202;-70
2021/03/20 06:47:22;;;;;;;2.70;1.63;;;-0.80;99.90;;;;;;5025086;28;20209;-70
2021/03/20 06:49:57;;;;;;;6.28;1.58;;;-0.70;99.90;;;;;;5036648;28;20306;-71
2021/03/20 06:52:25;;;;;;;7.03;2.17;;;-0.50;99.90;;;;;;5034381;28;20216;-71
2021/03/20 06:55:27;;;;;;;7.13;2.25;;;-0.40;99.90;;;;;;5040236;28;20589;-71
2021/03/20 06:57:54;;;;;;;2.80;1.90;;;-0.20;99.90;;;;;;5023805;28;20284;-71
2021/03/20 07:00:22;;;;;;;3.40;1.80;;;0.00;99.90;;;;;;5041664;28;20256;-71
2021/03/20 07:03:16;;;;;;;4.25;1.75;;;0.10;99.90;;;;;;5040826;28;20656;-72
2021/03/20 07:05:54;;;;;;;6.63;1.70;;;0.20;99.90;;;;;;5023988;28;20225;-72
2021/03/20 07:08:50;;;;;;;4.22;1.77;;;0.30;99.90;;;;;;5042531;28;20273;-71
2021/03/20 07:11:29;;;;;;;4.47;1.70;;;0.40;99.90;;;;;;5022356;28;20526;-72
2021/03/20 07:13:59;;;;;;;4.70;1.73;;;0.40;99.90;;;;;;5040517;28;20918;-72
2021/03/20 07:16:28;;;;;;;6.60;1.55;;;0.50;99.90;;;;;;5047508;28;20201;-73
2021/03/20 07:19:17;;;;;;;3.50;1.67;;;0.60;99.90;;;;;;5043661;28;20190;-72
2021/03/20 07:22:03;;;;;;;6.25;1.55;;;0.60;99.90;;;;;;5044781;28;20728;-72
2021/03/20 07:24:43;;;;;;;3.83;1.40;;;0.70;99.90;;;;;;5044718;28;20197;-71
2021/03/20 07:27:14;;;;;;;7.75;1.63;;;0.90;99.90;;;;;;5042637;28;20220;-73
2021/03/20 07:29:54;;;;;;;4.70;1.70;;;0.90;99.90;;;;;;5045333;28;20194;-73
2021/03/20 07:32:31;;;;;;;2.60;1.48;;;1.00;99.90;;;;;;5047171;28;20647;-72
2021/03/20 07:35:13;;;;;;;9.23;1.65;;;1.10;99.90;;;;;;5026661;28;20216;-71
2021/03/20 07:37:39;;;;;;;7.90;2.15;;;1.20;99.90;;;;;;5044784;28;20201;-73
2021/03/20 07:40:18;;;;;;;5.63;1.80;;;1.20;99.90;;;;;;5045501;28;21251;-72
2021/03/20 07:42:43;;;;;;;10.50;1.50;;;1.20;99.90;;;;;;5026860;28;20650;-71
2021/03/20 07:45:18;;;;;;;3.97;1.77;;;1.40;99.90;;;;;;5044790;28;20198;-70
2021/03/20 07:47:58;;;;;;;8.40;2.10;;;1.50;99.90;;;;;;5043791;28;20205;-70
2021/03/20 07:50:47;;;;;;;8.90;1.80;;;1.60;99.90;;;;;;5042688;28;20185;-73
2021/03/20 07:53:19;;;;;;;7.18;1.77;;;1.70;99.90;;;;;;5042044;28;20225;-71
2021/03/20 07:56:07;;;;;;;4.10;1.65;;;1.80;99.90;;;;;;5019540;28;20794;-72
2021/03/20 07:58:46;;;;;;;7.93;1.88;;;1.90;99.90;;;;;;5040045;28;20458;-71
2021/03/20 08:01:21;;;;;;;4.65;1.60;;;2.00;99.90;;;;;;5024110;28;20726;-71
2021/03/20 08:03:53;;;;;;;4.32;1.73;;;2.10;99.90;;;;;;5035838;28;20224;-71
2021/03/20 08:06:24;;;;;;;5.30;1.83;;;2.20;99.90;;;;;;5033663;28;20223;-71
2021/03/20 08:09:17;;;;;;;6.95;2.00;;;2.40;99.90;;;;;;5035531;28;20293;-72
2021/03/20 08:11:45;;;;;;;13.52;1.67;;;2.40;99.90;;;;;;5041607;28;20202;-70
2021/03/20 08:14:21;;;;;;;4.15;1.50;;;2.50;99.90;;;;;;5035452;28;20256;-71
2021/03/20 08:16:47;;;;;;;4.28;1.48;;;2.70;99.90;;;;;;5034622;28;20198;-69
2021/03/20 08:19:18;;;;;;;6.28;1.70;;;2.80;99.90;;;;;;5040769;28;20208;-71
2021/03/20 08:21:56;;;;;;;6.20;1.75;;;2.90;99.90;;;;;;5038015;28;20303;-72
2021/03/20 08:24:56;;;;;;;7.30;1.60;;;3.00;99.90;;;;;;5028015;28;20703;-72
2021/03/20 08:27:44;;;;;;;5.93;1.63;;;2.90;99.90;;;;;;5035662;28;20201;-73
2021/03/20 08:30:15;;;;;;;8.32;1.50;;;3.20;99.90;;;;;;5032190;28;20212;-73
2021/03/20 08:32:44;;;;;;;9.02;1.58;;;3.40;99.90;;;;;;5012115;28;20483;-73
2021/03/20 08:35:34;;;;;;;3.40;1.50;;;3.70;99.90;;;;;;5030592;28;20219;-72
2021/03/20 08:38:18;;;;;;;6.53;1.63;;;4.00;99.90;;;;;;5031373;28;20197;-71
2021/03/20 08:40:50;;;;;;;6.28;1.48;;;4.20;99.90;;;;;;5037647;28;20282;-73
2021/03/20 08:43:48;;;;;;;5.13;1.60;;;4.50;99.90;;;;;;5018296;28;20217;-72
2021/03/20 08:46:54;;;;;;;9.80;1.83;;;4.70;99.90;;;;;;5028195;28;20209;-72
2021/03/20 08:49:53;;;;;;;6.53;1.75;;;4.90;99.90;;;;;;5010922;28;20213;-71
2021/03/20 08:52:39;;;;;;;4.80;1.63;;;4.70;99.90;;;;;;5027963;28;20608;-71
2021/03/20 08:55:37;;;;;;;5.90;1.75;;;4.80;99.90;;;;;;5028058;28;20505;-71
2021/03/20 08:58:44;;;;;;;7.05;1.67;;;4.80;99.90;;;;;;5000266;28;20202;-71
2021/03/20 09:01:25;;;;;;;9.25;2.00;;;4.90;99.90;;;;;;5022416;28;20201;-72
2021/03/20 09:03:55;;;;;;;6.13;1.95;;;5.10;99.90;;;;;;5030371;28;20646;-72
2021/03/20 09:06:40;;;;;;;3.63;1.77;;;5.20;99.90;;;;;;5033955;28;20269;-72
2021/03/20 09:09:22;;;;;;;6.18;2.10;;;5.10;99.90;;;;;;5030025;28;20573;-72
2021/03/20 09:12:22;;;;;;;6.88;1.88;;;5.10;99.90;;;;;;5011665;28;20206;-71
2021/03/20 09:14:48;;;;;;;3.97;1.67;;;5.20;99.90;;;;;;5016948;28;20237;-72
2021/03/20 09:17:42;;;;;;;8.63;1.90;;;5.40;99.90;;;;;;5021703;28;20612;-70
2021/03/20 09:20:37;;;;;;;12.02;2.35;;;5.50;99.90;;;;;;5007299;28;20217;-72
2021/03/20 09:23:04;;;;;;;5.25;1.92;;;5.90;99.90;;;;;;5016953;28;20209;-71
2021/03/20 09:25:39;;;;;;;6.20;1.85;;;6.00;99.90;;;;;;5030388;28;20214;-69
2021/03/20 09:28:14;;;;;;;3.10;1.58;;;5.90;99.90;;;;;;5011462;28;20286;-71
2021/03/20 09:30:46;;;;;;;6.13;1.77;;;5.80;99.90;;;;;;5030244;28;20528;-72
2021/03/20 09:33:32;;;;;;;9.25;2.17;;;5.80;99.90;;;;;;5031781;28;20863;-71
2021/03/20 09:36:03;;;;;;;8.25;2.00;;;6.00;99.90;;;;;;5036361;28;20201;-70
2021/03/20 09:38:35;;;;;;;5.78;1.98;;;6.40;99.90;;;;;;5034624;28;20222;-72
2021/03/20 09:41:08;;;;;;;5.18;1.67;;;6.80;99.90;;;;;;5030674;28;20206;-73
2021/03/20 09:43:37;;;;;;;3.38;1.60;;;7.10;99.90;;;;;;5011509;28;20257;-72
2021/03/20 09:46:38;;;;;;;6.88;1.52;;;7.20;99.90;;;;;;5027351;28;20308;-71
2021/03/20 09:49:23;;;;;;;5.88;1.50;;;7.40;99.90;;;;;;4939954;28;20216;-73
2021/03/20 09:51:57;;;;;;;6.05;1.75;;;7.40;99.90;;;;;;4932196;28;20407;-70
2021/03/20 09:54:30;;;;;;;4.75;1.70;;;7.20;99.90;;;;;;4933053;28;20282;-70
2021/03/20 09:56:56;;;;;;;7.88;2.15;;;6.90;99.90;;;;;;4933506;28;20781;-71
2021/03/20 09:59:29;;;;;;;5.53;1.80;;;6.60;99.90;;;;;;4934014;28;20200;-73
2021/03/20 10:02:21;;;;;;;7.18;1.85;;;6.40;99.90;;;;;;4931961;28;20742;-72
2021/03/20 10:04:55;;;;;;;5.88;1.85;;;6.60;99.90;;;;;;4907137;28;20396;-72
2021/03/20 10:07:24;;;;;;;6.88;2.20;;;6.80;99.90;;;;;;4935546;28;20234;-71
2021/03/20 10:10:10;;;;;;;8.02;1.60;;;7.10;99.90;;;;;;4935710;28;20208;-71
2021/03/20 10:12:42;;;;;;;4.57;1.75;;;7.60;99.90;;;;;;4934348;28;20602;-72
2021/03/20 10:15:17;;;;;;;7.00;2.03;;;7.90;99.90;;;;;;4930490;28;20813;-72
2021/03/20 10:18:04;;;;;;;9.13;1.70;;;7.90;99.90;;;;;;4935303;28;20935;-71
2021/03/20 10:20:49;;;;;;;9.02;2.10;;;8.00;99.90;;;;;;4934844;28;20239;-72
2021/03/20 10:23:45;;;;;;;7.10;1.98;;;8.10;99.90;;;;;;4988229;28;20852;-71
2021/03/20 10:26:32;;;;;;;7.38;1.95;;;7.90;99.90;;;;;;5026363;28;20193;-70
2021/03/20 10:29:02;;;;;;;4.35;1.70;;;7.80;99.90;;;;;;5032339;28;20784;-70
2021/03/20 10:31:35;;;;;;;7.88;1.80;;;7.90;99.90;;;;;;5034829;28;20263;-70
2021/03/20 10:34:23;;;;;;;8.30;1.90;;;8.00;99.90;;;;;;5029169;28;20379;-70
2021/03/20 10:37:06;;;;;;;6.97;2.03;;;8.00;99.90;;;;;;5037103;28;20762;-71
2021/03/20 10:39:37;;;;;;;4.55;1.60;;;7.80;99.90;;;;;;5025931;28;20197;-69
2021/03/20 10:42:12;;;;;;;6.55;1.73;;;7.90;99.90;;;;;;5028112;28;20877;-72
2021/03/20 10:44:43;;;;;;;6.20;1.90;;;7.90;99.90;;;;;;5027841;28;20723;-71
2021/03/20 10:47:12;;;;;;;9.85;1.80;;;7.80;99.90;;;;;;5021721;28;20718;-72
2021/03/20 10:49:58;;;;;;;9.18;1.80;;;7.60;99.90;;;;;;5030133;28;20625;-72
2021/03/20 10:52:32;;;;;;;6.30;1.90;;;7.70;99.90;;;;;;5037358;28;21013;-71
2021/03/20 10:55:04;;;;;;;5.88;2.15;;;7.80;99.90;;;;;;5033239;28;20220;-72
2021/03/20 10:57:32;;;;;;;7.90;2.05;;;8.00;99.90;;;;;;5039187;28;20535;-72
2021/03/20 10:59:59;;;;;;;7.72;1.90;;;8.50;99.90;;;;;;5032303;28;21720;-71
2021/03/20 11:02:34;;;;;;;4.97;1.83;;;8.90;99.90;;;;;;5016069;28;20577;-72
2021/03/20 11:05:22;;;;;;;6.47;2.30;;;9.10;99.90;;;;;;5015408;28;20652;-72
2021/03/20 11:08:09;;;;;;;8.30;1.85;;;9.50;99.90;;;;;;5034934;28;20229;-70
2021/03/20 11:10:38;;;;;;;8.82;2.00;;;9.70;99.50;;;;;;5018334;28;20223;-72
2021/03/20 11:13:08;;;;;;;8.50;1.90;;;9.70;99.30;;;;;;5030852;28;20770;-72
2021/03/20 11:15:37;;;;;;;14.00;1.90;;;10.10;99.90;;;;;;5024541;28;20594;-72
2021/03/20 11:18:08;;;;;;;2.80;1.80;;;9.90;98.10;;;;;;5016696;28;20229;-72
2021/03/20 11:20:37;;;;;;;8.15;2.40;;;10.00;98.50;;;;;;5040042;28;20216;-73
2021/03/20 11:23:05;;;;;;;6.88;2.03;;;10.20;97.60;;;;;;5038239;28;20284;-71
2021/03/20 11:25:42;;;;;;;7.43;1.77;;;9.80;97.40;;;;;;5019812;28;20229;-71
2021/03/20 11:28:11;;;;;;;5.75;2.33;;;9.90;97.60;;;;;;5012519;28;20205;-71
2021/03/20 11:30:44;;;;;;;4.70;2.00;;;9.80;98.40;;;;;;5038773;28;20444;-71
2021/03/20 11:33:15;;;;;;;5.00;1.90;;;10.10;97.40;;;;;;5030526;28;20611;-71
2021/03/20 11:35:45;;;;;;;7.68;2.40;;;10.10;97.30;;;;;;5039132;28;20197;-72
2021/03/20 11:38:14;;;;;;;4.60;2.08;;;10.00;97.90;;;;;;5040481;28;20695;-71
2021/03/20 11:40:43;;;;;;;6.80;2.67;;;9.90;97.50;;;;;;5032325;28;20190;-71
2021/03/20 11:43:26;;;;;;;3.80;2.10;;;9.90;97.90;;;;;;5034619;28;20197;-71
2021/03/20 11:45:54;;;;;;;4.53;1.80;;;9.60;97.80;;;;;;5017226;28;20213;-71
2021/03/20 11:48:37;;;;;;;8.95;2.20;;;9.60;97.90;;;;;;5031089;28;20201;-71
2021/03/20 11:51:11;;;;;;;5.57;1.90;;;9.80;98.30;;;;;;5036363;28;20207;-72
2021/03/20 11:53:44;;;;;;;5.82;1.63;;;10.10;98.40;;;;;;5032688;28;20209;-72
2021/03/20 11:56:34;;;;;;;6.25;1.88;;;10.40;97.00;;;;;;5029659;28;20201;-71
2021/03/20 11:59:04;;;;;;;6.35;1.80;;;11.00;97.50;;;;;;5031211;28;20296;-72
2021/03/20 12:01:49;;;;;;;8.15;2.20;;;11.40;95.00;;;;;;5019456;28;20194;-71
2021/03/20 12:04:28;;;;;;;5.38;1.77;;;11.50;94.50;;;;;;5036471;28;20229;-72
2021/03/20 12:07:20;;;;;;;6.72;2.03;;;11.90;94.90;;;;;;5016943;28;20197;-72
2021/03/20 12:09:46;;;;;;;6.65;1.52;;;12.20;92.60;;;;;;5025076;28;20233;-71
2021/03/20 12:12:12;;;;;;;7.75;1.90;;;12.20;94.00;;;;;;5030822;28;20202;-70
2021/03/20 12:14:41;;;;;;;6.97;1.80;;;12.20;92.60;;;;;;5007986;28;20695;-71
2021/03/20 12:17:10;;;;;;;9.23;1.70;;;12.30;92.30;;;;;;5019374;28;20205;-70
2021/03/20 12:20:07;;;;;;;3.58;1.73;;;12.30;92.70;;;;;;5039048;28;20310;-70
2021/03/20 12:22:47;;;;;;;2.63;1.50;;;12.30;91.90;;;;;;5031203;28;20193;-73
2021/03/20 12:25:19;;;;;;;6.68;1.90;;;12.00;92.40;;;;;;5009792;28;20585;-72
2021/03/20 12:27:47;;;;;;;7.57;2.13;;;11.80;91.90;;;;;;5037731;28;20201;-70
2021/03/20 12:30:28;;;;;;;5.50;1.80;;;11.50;93.70;;;;;;5027498;28;20197;-70
2021/03/20 12:33:15;;;;;;;7.05;2.10;;;11.60;93.30;;;;;;5032606;28;20209;-72
2021/03/20 12:35:47;;;;;;;4.70;1.83;;;12.00;92.50;;;;;;5029215;28;20650;-72
2021/03/20 12:38:25;;;;;;;10.50;1.75;;;12.40;92.50;;;;;;5032631;28;20200;-71
2021/03/20 12:41:02;;;;;;;5.95;2.10;;;12.60;92.60;;;;;;5016235;28;20606;-71
2021/03/20 12:43:30;;;;;;;3.97;1.65;;;12.40;91.50;;;;;;5029518;28;20193;-72
2021/03/20 12:46:00;;;;;;;4.93;1.88;;;12.30;91.50;;;;;;5021841;28;20221;-71
2021/03/20 12:48:26;;;;;;;6.40;1.80;;;12.60;91.70;;;;;;5007556;28;20194;-72
2021/03/20 12:51:03;;;;;;;8.05;1.92;;;12.80;91.10;;;;;;5018320;28;20201;-71
2021/03/20 12:53:29;;;;;;;3.05;1.50;;;12.80;91.70;;;;;;5033416;28;20192;-71
2021/03/20 12:55:54;;;;;;;9.10;1.77;;;12.70;90.80;;;;;;5030601;28;20208;-70
2021/03/20 12:58:20;;;;;;;4.28;1.63;;;12.80;90.90;;;;;;5032889;28;20193;-70
2021/03/20 13:00:46;;;;;;;4.35;1.90;;;12.70;91.10;;;;;;5026757;28;20197;-70
2021/03/20 13:03:12;;;;;;;6.82;1.70;;;12.80;91.30;;;;;;5032680;28;20205;-71
2021/03/20 13:05:42;;;;;;;4.85;1.63;;;13.00;90.10;;;;;;5031362;28;20225;-71
2021/03/20 13:08:08;;;;;;;5.07;1.70;;;13.00;90.20;;;;;;5014018;28;20203;-71
2021/03/20 13:10:34;;;;;;;3.75;1.40;;;12.90;90.70;;;;;;5026963;28;20193;-71
2021/03/20 13:13:00;;;;;;;6.05;1.92;;;13.00;91.10;;;;;;5031784;28;20270;-72
2021/03/20 13:15:27;;;;;;;5.90;1.52;;;13.10;90.80;;;;;;5017709;28;20691;-71
2021/03/20 13:17:53;;;;;;;5.47;1.65;;;13.00;90.20;;;;;;5015832;28;20204;-71
2021/03/20 13:20:21;;;;;;;3.45;1.40;;;12.90;90.70;;;;;;5033504;28;20332;-72
2021/03/20 13:22:46;;;;;;;3.22;1.15;;;13.20;90.20;;;;;;5030438;28;20213;-70
2021/03/20 13:25:25;;;;;;;3.83;1.40;;;13.00;90.30;;;;;;5034231;28;22377;-70
2021/03/20 13:27:51;;;;;;;5.18;1.50;;;13.00;90.90;;;;;;5032350;28;20954;-71
2021/03/20 13:30:23;;;;;;;4.75;1.42;;;13.10;90.70;;;;;;5029849;28;20206;-73
2021/03/20 13:32:53;;;;;;;3.85;1.40;;;13.00;90.90;;;;;;5032088;28;20655;-71
2021/03/20 13:35:24;;;;;;;4.10;1.30;;;13.10;91.10;;;;;;5013630;28;20658;-73